createdAt,value
2023-03-30T00:00:56.517Z,11.00
2023-03-30T00:03:28.792Z,11.00
2023-03-30T00:06:05.392Z,11.00
2023-03-30T00:08:38.139Z,11.00
2023-03-30T00:11:13.326Z,11.00
2023-03-30T00:13:45.412Z,11.00
2023-03-30T00:16:18.118Z,11.00
2023-03-30T00:18:50.629Z,11.10
2023-03-30T00:21:22.857Z,11.20
2023-03-30T00:23:54.821Z,11.20
2023-03-30T00:26:27.208Z,11.10
2023-03-30T00:28:59.034Z,11.10
2023-03-30T00:31:31.152Z,11.10
2023-03-30T00:34:03.101Z,11.00
2023-03-30T00:36:37.224Z,11.00
2023-03-30T00:39:09.961Z,11.10
2023-03-30T00:41:41.847Z,11.10
2023-03-30T00:44:52.013Z,11.10
2023-03-30T00:47:25.259Z,11.10
2023-03-30T00:49:57.995Z,11.10
2023-03-30T00:52:33.152Z,11.10
2023-03-30T00:55:08.063Z,11.00
2023-03-30T00:57:43.203Z,10.90
2023-03-30T01:00:15.426Z,10.90
2023-03-30T01:02:56.624Z,10.90
2023-03-30T01:05:29.652Z,10.90
2023-03-30T01:08:07.562Z,10.90
2023-03-30T01:10:39.871Z,10.90
2023-03-30T01:13:14.292Z,10.90
2023-03-30T01:16:01.300Z,10.90
2023-03-30T01:18:40.393Z,10.80
2023-03-30T01:21:31.592Z,10.80
2023-03-30T01:24:09.327Z,10.90
2023-03-30T01:26:53.499Z,10.80
2023-03-30T01:29:31.244Z,10.80
2023-03-30T01:32:28.041Z,10.70
2023-03-30T01:35:17.991Z,10.70
2023-03-30T01:37:58.334Z,10.80
2023-03-30T01:40:53.516Z,10.80
2023-03-30T01:43:31.668Z,10.80
2023-03-30T01:46:34.228Z,10.80
2023-03-30T01:49:15.690Z,10.80
2023-03-30T01:52:05.332Z,10.90
2023-03-30T01:54:44.356Z,10.90
2023-03-30T01:57:20.553Z,11.00
2023-03-30T01:59:59.351Z,11.00
2023-03-30T02:02:32.996Z,10.90
2023-03-30T02:05:08.727Z,10.90
2023-03-30T02:07:43.099Z,10.90
2023-03-30T02:10:18.288Z,10.90
2023-03-30T02:12:51.759Z,10.80
2023-03-30T02:15:26.436Z,10.80
2023-03-30T02:17:58.367Z,10.90
2023-03-30T02:20:31.931Z,10.90
2023-03-30T02:27:08.576Z,10.90
2023-03-30T02:33:56.912Z,10.80
2023-03-30T02:36:34.521Z,10.80
2023-03-30T02:39:19.212Z,10.90
2023-03-30T02:42:00.563Z,10.90
2023-03-30T02:45:03.121Z,11.00
2023-03-30T02:48:02.861Z,10.90
2023-03-30T02:50:54.617Z,10.90
2023-03-30T02:54:16.276Z,10.80
2023-03-30T02:57:32.935Z,10.80
2023-03-30T03:00:53.864Z,10.70
2023-03-30T03:03:45.989Z,10.70
2023-03-30T03:06:20.477Z,10.70
2023-03-30T03:08:58.207Z,10.80
2023-03-30T03:11:32.966Z,10.80
2023-03-30T03:14:07.881Z,10.80
2023-03-30T03:16:39.830Z,10.80
2023-03-30T03:19:34.450Z,10.70
2023-03-30T03:22:07.535Z,10.80
2023-03-30T03:24:41.626Z,10.90
2023-03-30T03:27:37.838Z,11.00
2023-03-30T03:30:19.963Z,11.00
2023-03-30T03:33:01.668Z,10.80
2023-03-30T03:35:39.319Z,10.70
2023-03-30T03:38:14.048Z,10.70
2023-03-30T03:40:57.905Z,10.70
2023-03-30T03:43:31.542Z,10.60
2023-03-30T03:46:03.661Z,10.60
2023-03-30T03:48:36.537Z,10.50
2023-03-30T03:51:09.468Z,10.50
2023-03-30T03:53:41.704Z,10.50
2023-03-30T03:56:17.054Z,10.50
2023-03-30T03:58:49.000Z,10.40
2023-03-30T04:01:20.836Z,10.40
2023-03-30T04:03:52.817Z,10.50
2023-03-30T04:06:24.828Z,10.50
2023-03-30T04:08:56.811Z,10.50
2023-03-30T04:11:41.569Z,10.50
2023-03-30T04:14:40.258Z,10.50
2023-03-30T04:17:37.279Z,10.50
2023-03-30T04:20:29.274Z,10.50
2023-03-30T04:23:22.067Z,10.50
2023-03-30T04:26:30.507Z,10.60
2023-03-30T04:29:27.450Z,10.70
2023-03-30T04:32:21.589Z,10.70
2023-03-30T04:34:59.712Z,10.70
2023-03-30T04:37:35.236Z,10.70
2023-03-30T04:40:26.757Z,10.70
2023-03-30T04:43:04.743Z,10.60
2023-03-30T04:46:06.229Z,10.60
2023-03-30T04:48:53.284Z,10.50
2023-03-30T04:51:45.406Z,10.50
2023-03-30T04:54:35.710Z,10.50
2023-03-30T04:57:27.938Z,10.50
2023-03-30T05:00:29.577Z,10.60
2023-03-30T05:03:23.482Z,10.70
2023-03-30T05:06:17.920Z,10.70
2023-03-30T05:09:16.725Z,10.70
2023-03-30T05:12:07.248Z,10.70
2023-03-30T05:14:52.378Z,10.70
2023-03-30T05:17:34.281Z,10.80
2023-03-30T05:20:25.168Z,10.80
2023-03-30T05:23:16.075Z,10.90
2023-03-30T05:25:56.842Z,10.90
2023-03-30T05:28:44.055Z,10.90
2023-03-30T05:31:41.241Z,11.00
2023-03-30T05:34:13.179Z,11.00
2023-03-30T05:37:02.691Z,11.00
2023-03-30T05:39:41.252Z,11.10
2023-03-30T05:42:26.478Z,11.10
2023-03-30T05:45:05.614Z,11.20
2023-03-30T05:48:00.881Z,11.20
2023-03-30T05:50:38.717Z,11.40
2023-03-30T05:53:16.445Z,11.40
2023-03-30T05:56:19.725Z,11.40
2023-03-30T05:59:17.087Z,11.40
2023-03-30T06:01:59.542Z,11.40
2023-03-30T06:04:32.603Z,11.50
2023-03-30T06:07:07.769Z,11.50
2023-03-30T06:09:39.733Z,11.50
2023-03-30T06:12:23.397Z,11.50
2023-03-30T06:14:55.478Z,11.40
2023-03-30T06:17:52.140Z,11.20
2023-03-30T06:20:26.125Z,11.10
2023-03-30T06:22:58.156Z,11.20
2023-03-30T06:25:31.271Z,11.20
2023-03-30T06:28:03.952Z,11.10
2023-03-30T06:30:36.638Z,11.10
2023-03-30T06:33:11.837Z,11.10
2023-03-30T06:36:00.612Z,11.20
2023-03-30T06:38:33.605Z,11.20
2023-03-30T06:41:10.079Z,11.30
2023-03-30T06:43:44.630Z,11.20
2023-03-30T06:46:20.102Z,11.30
2023-03-30T06:48:54.240Z,11.40
2023-03-30T06:51:46.607Z,11.30
2023-03-30T06:54:20.412Z,11.40
2023-03-30T06:56:59.388Z,11.40
2023-03-30T07:03:36.386Z,11.50
2023-03-30T07:06:22.933Z,11.40
2023-03-30T07:08:55.167Z,11.40
2023-03-30T07:11:30.094Z,11.50
2023-03-30T07:14:02.433Z,11.60
2023-03-30T07:16:34.502Z,11.60
2023-03-30T07:19:08.992Z,11.60
2023-03-30T07:21:41.106Z,11.70
2023-03-30T07:24:16.669Z,11.70
2023-03-30T07:26:49.813Z,11.70
2023-03-30T07:29:24.929Z,11.80
2023-03-30T07:31:59.806Z,11.80
2023-03-30T07:34:33.728Z,11.80
2023-03-30T07:37:08.066Z,11.90
2023-03-30T07:39:41.769Z,12.00
2023-03-30T07:42:13.792Z,12.00
2023-03-30T07:44:46.552Z,12.00
2023-03-30T07:47:22.180Z,12.00
2023-03-30T07:49:54.094Z,12.10
2023-03-30T07:52:26.474Z,12.20
2023-03-30T07:55:04.487Z,12.30
2023-03-30T07:57:47.094Z,12.40
2023-03-30T08:00:23.438Z,12.40
2023-03-30T08:03:16.738Z,12.50
2023-03-30T08:05:57.177Z,12.50
2023-03-30T08:08:36.048Z,12.60
2023-03-30T08:11:13.597Z,12.70
2023-03-30T08:13:49.858Z,12.70
2023-03-30T08:16:21.938Z,12.60
2023-03-30T08:18:55.596Z,12.60
2023-03-30T08:21:27.790Z,12.50
2023-03-30T08:24:01.646Z,12.50
2023-03-30T08:26:33.821Z,12.50
2023-03-30T08:29:07.067Z,12.60
2023-03-30T08:31:39.284Z,12.60
2023-03-30T08:34:11.627Z,12.50
2023-03-30T08:36:43.623Z,12.60
2023-03-30T08:39:15.866Z,12.70
2023-03-30T08:41:59.935Z,12.90
2023-03-30T08:44:33.911Z,12.90
2023-03-30T08:47:13.976Z,12.90
2023-03-30T08:49:59.532Z,13.00
2023-03-30T08:52:38.001Z,13.10
2023-03-30T08:55:28.007Z,13.10
2023-03-30T08:58:03.811Z,13.20
2023-03-30T09:00:57.099Z,13.30
2023-03-30T09:03:59.457Z,13.60
2023-03-30T09:06:50.025Z,13.80
2023-03-30T09:09:25.442Z,13.80
2023-03-30T09:12:05.937Z,13.80
2023-03-30T09:14:48.245Z,13.70
2023-03-30T09:17:33.140Z,13.70
2023-03-30T09:20:30.786Z,13.50
2023-03-30T09:23:03.715Z,13.60
2023-03-30T09:25:54.399Z,13.50
2023-03-30T09:28:53.599Z,13.50
2023-03-30T09:31:55.145Z,13.50
2023-03-30T09:34:29.661Z,13.50
2023-03-30T09:37:06.205Z,13.50
2023-03-30T09:39:39.498Z,13.50
2023-03-30T09:42:36.843Z,13.40
2023-03-30T09:45:22.676Z,13.30
2023-03-30T09:47:58.336Z,13.30
2023-03-30T09:50:30.849Z,13.30
2023-03-30T09:53:05.414Z,13.30
2023-03-30T09:55:38.213Z,13.40
2023-03-30T09:58:21.074Z,13.60
2023-03-30T10:01:13.712Z,13.60
2023-03-30T10:04:05.516Z,13.70
2023-03-30T10:06:53.434Z,13.60
2023-03-30T10:09:28.310Z,13.60
2023-03-30T10:12:00.218Z,13.60
2023-03-30T10:14:43.717Z,13.70
2023-03-30T10:17:25.200Z,13.70
2023-03-30T10:20:37.890Z,13.60
2023-03-30T10:23:20.280Z,13.60
2023-03-30T10:26:03.824Z,13.50
2023-03-30T10:28:36.425Z,13.50
2023-03-30T10:31:18.556Z,13.50
2023-03-30T10:33:58.193Z,13.60
2023-03-30T10:36:34.263Z,13.60
2023-03-30T10:39:23.556Z,13.70
2023-03-30T10:41:59.694Z,13.70
2023-03-30T10:45:02.953Z,13.80
2023-03-30T10:48:00.598Z,13.80
2023-03-30T10:51:12.315Z,13.80
2023-03-30T10:54:10.957Z,13.70
2023-03-30T10:56:57.241Z,13.70
2023-03-30T10:59:53.965Z,13.70
2023-03-30T11:03:15.089Z,13.80
2023-03-30T11:05:54.296Z,13.80
2023-03-30T11:08:39.588Z,13.70
2023-03-30T11:11:24.407Z,13.60
2023-03-30T11:14:15.916Z,13.70
2023-03-30T11:17:04.780Z,13.80
2023-03-30T11:19:49.174Z,14.00
2023-03-30T11:22:36.731Z,14.10
2023-03-30T11:25:28.876Z,14.20
2023-03-30T11:28:29.986Z,14.30
2023-03-30T11:31:13.520Z,14.30
2023-03-30T11:33:54.632Z,14.30
2023-03-30T11:36:59.388Z,14.20
2023-03-30T11:39:36.677Z,14.30
2023-03-30T11:42:27.834Z,14.30
2023-03-30T11:45:01.772Z,14.40
2023-03-30T11:47:39.585Z,14.40
2023-03-30T11:50:29.937Z,14.30
2023-03-30T11:53:24.352Z,14.30
2023-03-30T11:56:10.606Z,14.30
2023-03-30T11:59:01.835Z,14.40
2023-03-30T12:02:01.491Z,14.50
2023-03-30T12:04:42.931Z,14.70
2023-03-30T12:07:31.072Z,14.70
2023-03-30T12:10:09.518Z,14.80
2023-03-30T12:12:45.500Z,14.60
2023-03-30T12:15:40.477Z,14.70
2023-03-30T12:18:38.236Z,14.60
2023-03-30T12:21:47.796Z,14.70
2023-03-30T12:24:39.498Z,14.80
2023-03-30T12:27:12.029Z,15.00
2023-03-30T12:32:30.914Z,15.40
2023-03-30T12:35:44.664Z,15.50
2023-03-30T12:38:22.654Z,15.60
2023-03-30T12:41:30.603Z,15.60
2023-03-30T12:44:15.016Z,15.60
2023-03-30T12:47:24.842Z,15.50
2023-03-30T12:50:00.979Z,15.40
2023-03-30T12:52:47.961Z,15.50
2023-03-30T12:55:54.209Z,15.50
2023-03-30T12:58:55.263Z,15.70
2023-03-30T13:02:00.110Z,15.80
2023-03-30T13:04:39.560Z,15.80
2023-03-30T13:07:27.179Z,15.70
2023-03-30T13:10:04.005Z,15.60
2023-03-30T13:12:41.815Z,15.40
2023-03-30T13:15:16.746Z,15.30
2023-03-30T13:18:07.250Z,15.20
2023-03-30T13:20:48.085Z,15.00
2023-03-30T13:23:19.966Z,14.90
2023-03-30T13:26:33.808Z,14.80
2023-03-30T13:29:11.891Z,14.80
2023-03-30T13:32:05.024Z,15.00
2023-03-30T13:35:05.986Z,15.10
2023-03-30T13:38:05.830Z,15.30
2023-03-30T13:41:04.633Z,15.40
2023-03-30T13:44:14.836Z,15.60
2023-03-30T13:46:53.781Z,15.70
2023-03-30T13:49:52.499Z,15.80
2023-03-30T13:52:38.688Z,15.90
2023-03-30T13:55:19.626Z,15.90
2023-03-30T13:57:59.654Z,16.00
2023-03-30T14:00:52.420Z,16.10
2023-03-30T14:03:40.460Z,16.10
2023-03-30T14:06:26.464Z,16.10
2023-03-30T14:09:23.372Z,16.30
2023-03-30T14:11:59.605Z,16.30
2023-03-30T14:14:41.179Z,16.30
2023-03-30T14:17:24.297Z,16.30
2023-03-30T14:20:06.829Z,16.10
2023-03-30T14:22:44.518Z,15.90
2023-03-30T14:25:40.292Z,16.00
2023-03-30T14:28:22.900Z,16.20
2023-03-30T14:31:04.654Z,16.20
2023-03-30T14:33:40.242Z,16.10
2023-03-30T14:36:18.293Z,16.20
2023-03-30T14:38:52.895Z,16.30
2023-03-30T14:41:27.990Z,16.40
2023-03-30T14:44:06.945Z,16.30
2023-03-30T14:46:47.449Z,16.40
2023-03-30T14:49:32.687Z,16.40
2023-03-30T14:52:14.877Z,16.50
2023-03-30T14:55:01.829Z,16.60
2023-03-30T14:57:39.468Z,16.70
2023-03-30T15:00:20.225Z,16.80
2023-03-30T15:03:00.640Z,17.00
2023-03-30T15:05:42.847Z,17.40
2023-03-30T15:08:25.135Z,17.70
2023-03-30T15:11:06.618Z,17.90
2023-03-30T15:13:54.720Z,17.80
2023-03-30T15:16:29.937Z,17.80
2023-03-30T15:19:22.087Z,17.60
2023-03-30T15:21:58.266Z,17.40
2023-03-30T15:24:37.424Z,17.20
2023-03-30T15:27:13.899Z,17.20
2023-03-30T15:29:47.610Z,17.10
2023-03-30T15:32:27.490Z,16.80
2023-03-30T15:35:04.435Z,16.70
2023-03-30T15:37:37.284Z,16.70
2023-03-30T15:40:40.274Z,16.70
2023-03-30T15:43:25.225Z,16.50
2023-03-30T15:46:02.927Z,16.60
2023-03-30T15:48:43.433Z,16.70
2023-03-30T15:51:19.541Z,16.70
2023-03-30T15:54:17.839Z,16.70
2023-03-30T15:57:21.651Z,16.80
2023-03-30T16:00:01.439Z,16.80
2023-03-30T16:02:57.930Z,16.70
2023-03-30T16:05:33.917Z,16.60
2023-03-30T16:08:06.464Z,16.30
2023-03-30T16:10:38.960Z,16.20
2023-03-30T16:13:12.245Z,16.20
2023-03-30T16:15:45.008Z,16.30
2023-03-30T16:18:17.108Z,16.30
2023-03-30T16:20:49.006Z,16.40
2023-03-30T16:23:22.999Z,16.40
2023-03-30T16:25:54.935Z,16.40
2023-03-30T16:28:26.930Z,16.50
2023-03-30T16:31:03.654Z,16.40
2023-03-30T16:33:36.515Z,16.40
2023-03-30T16:36:14.218Z,16.30
2023-03-30T16:38:46.865Z,16.30
2023-03-30T16:41:21.258Z,16.30
2023-03-30T16:43:57.314Z,16.20
2023-03-30T16:46:29.321Z,16.20
2023-03-30T16:49:01.666Z,16.20
2023-03-30T16:51:33.577Z,16.10
2023-03-30T16:54:16.324Z,16.10
2023-03-30T16:56:55.768Z,16.10
2023-03-30T16:59:30.322Z,16.10
2023-03-30T17:02:03.955Z,16.20
2023-03-30T17:04:35.784Z,16.10
2023-03-30T17:07:09.453Z,16.10
2023-03-30T17:09:41.316Z,15.90
2023-03-30T17:12:13.165Z,15.90
2023-03-30T17:14:45.156Z,15.90
2023-03-30T17:17:17.004Z,15.90
2023-03-30T17:19:48.865Z,15.80
2023-03-30T17:22:20.739Z,15.80
2023-03-30T17:24:52.570Z,15.80
2023-03-30T17:27:25.927Z,15.70
2023-03-30T17:29:57.979Z,15.80
2023-03-30T17:32:29.949Z,15.60
2023-03-30T17:35:01.872Z,15.60
2023-03-30T17:37:33.807Z,15.50
2023-03-30T17:40:27.005Z,15.50
2023-03-30T17:43:24.292Z,15.50
2023-03-30T17:45:56.238Z,15.50
2023-03-30T17:48:28.220Z,15.40
2023-03-30T17:51:00.602Z,15.40
2023-03-30T17:53:32.806Z,15.40
2023-03-30T17:56:05.178Z,15.40
2023-03-30T17:58:37.293Z,15.30
2023-03-30T18:01:12.339Z,15.30
2023-03-30T18:03:45.090Z,15.20
2023-03-30T18:06:19.984Z,15.10
2023-03-30T18:08:52.137Z,15.20
2023-03-30T18:11:24.004Z,15.20
2023-03-30T18:13:56.024Z,15.10
2023-03-30T18:16:28.012Z,15.00
2023-03-30T18:19:00.146Z,15.00
2023-03-30T18:21:32.107Z,14.90
2023-03-30T18:24:05.122Z,14.90
2023-03-30T18:26:39.630Z,14.90
2023-03-30T18:29:20.267Z,14.80
2023-03-30T18:32:04.719Z,14.80
2023-03-30T18:34:36.594Z,14.80
2023-03-30T18:37:09.308Z,14.80
2023-03-30T18:39:43.064Z,14.80
2023-03-30T18:42:14.975Z,14.80
2023-03-30T18:44:47.879Z,14.80
2023-03-30T18:47:19.776Z,14.70
2023-03-30T18:49:51.702Z,14.60
2023-03-30T18:52:23.524Z,14.50
2023-03-30T18:54:55.601Z,14.40
2023-03-30T18:57:27.686Z,14.30
2023-03-30T19:00:01.697Z,14.30
2023-03-30T19:02:33.797Z,14.30
2023-03-30T19:05:06.620Z,14.40
2023-03-30T19:07:38.508Z,14.40
2023-03-30T19:10:18.736Z,14.30
2023-03-30T19:12:53.486Z,14.20
2023-03-30T19:15:28.519Z,14.20
2023-03-30T19:18:01.747Z,14.30
2023-03-30T19:20:37.834Z,14.30
2023-03-30T19:23:17.160Z,14.30
2023-03-30T19:25:49.335Z,14.40
2023-03-30T19:28:21.696Z,14.40
2023-03-30T19:30:53.793Z,14.40
2023-03-30T19:33:32.056Z,14.30
2023-03-30T19:36:10.073Z,14.30
2023-03-30T19:38:43.961Z,14.30
2023-03-30T19:41:19.138Z,14.40
2023-03-30T19:43:51.761Z,14.40
2023-03-30T19:46:24.564Z,14.40
2023-03-30T19:48:56.962Z,14.30
2023-03-30T19:51:29.781Z,14.30
2023-03-30T19:54:03.139Z,14.30
2023-03-30T19:56:35.423Z,14.30
2023-03-30T19:59:08.158Z,14.30
2023-03-30T20:01:40.290Z,14.30
2023-03-30T20:04:12.255Z,14.30
2023-03-30T20:06:44.211Z,14.30
2023-03-30T20:09:16.823Z,14.30
2023-03-30T20:11:49.110Z,14.20
2023-03-30T20:14:21.209Z,14.10
2023-03-30T20:16:53.124Z,14.00
2023-03-30T20:19:29.639Z,14.00
2023-03-30T20:22:02.194Z,14.00
2023-03-30T20:24:34.096Z,14.00
2023-03-30T20:27:06.788Z,14.10
2023-03-30T20:29:38.703Z,14.00
2023-03-30T20:32:10.779Z,14.00
2023-03-30T20:34:45.850Z,14.00
2023-03-30T20:37:25.706Z,14.00
2023-03-30T20:40:05.192Z,13.80
2023-03-30T20:42:42.743Z,13.70
2023-03-30T20:45:14.785Z,13.60
2023-03-30T20:47:50.174Z,13.60
2023-03-30T20:50:22.698Z,13.60
2023-03-30T20:52:54.519Z,13.60
2023-03-30T20:55:26.740Z,13.50
2023-03-30T20:57:58.739Z,13.50
2023-03-30T21:00:30.645Z,13.50
2023-03-30T21:03:02.604Z,13.50
2023-03-30T21:05:34.602Z,13.50
2023-03-30T21:08:07.920Z,13.50
2023-03-30T21:10:42.999Z,13.40
2023-03-30T21:13:15.359Z,13.30
2023-03-30T21:15:47.406Z,13.20
2023-03-30T21:18:19.230Z,13.00
2023-03-30T21:20:51.472Z,12.90
2023-03-30T21:23:25.365Z,12.80
2023-03-30T21:26:02.628Z,12.70
2023-03-30T21:28:35.664Z,12.50
2023-03-30T21:31:11.558Z,12.50
2023-03-30T21:33:43.821Z,12.40
2023-03-30T21:36:15.775Z,12.30
2023-03-30T21:38:47.712Z,12.30
2023-03-30T21:41:21.414Z,12.20
2023-03-30T21:43:55.569Z,12.20
2023-03-30T21:46:27.460Z,12.20
2023-03-30T21:48:59.395Z,12.20
2023-03-30T21:51:31.969Z,12.20
2023-03-30T21:54:04.090Z,12.20
2023-03-30T21:56:36.157Z,12.10
2023-03-30T21:59:08.040Z,12.10
2023-03-30T22:01:40.080Z,12.10
2023-03-30T22:04:11.997Z,12.00
2023-03-30T22:06:44.227Z,12.10
2023-03-30T22:09:16.102Z,12.20
2023-03-30T22:11:48.090Z,12.20
2023-03-30T22:14:20.147Z,12.00
2023-03-30T22:16:52.144Z,11.90
2023-03-30T22:19:24.672Z,11.80
2023-03-30T22:21:56.676Z,11.80
2023-03-30T22:24:28.529Z,11.90
2023-03-30T22:27:00.426Z,11.90
2023-03-30T22:29:32.434Z,11.80
2023-03-30T22:32:04.835Z,11.80
2023-03-30T22:34:37.657Z,11.70
2023-03-30T22:37:09.612Z,11.70
2023-03-30T22:39:42.003Z,11.70
2023-03-30T22:42:14.014Z,11.70
2023-03-30T22:44:46.705Z,11.80
2023-03-30T22:47:18.670Z,11.90
2023-03-30T22:49:50.543Z,11.90
2023-03-30T22:52:22.842Z,11.90
2023-03-30T22:54:54.978Z,11.90
2023-03-30T22:57:27.915Z,11.90
2023-03-30T22:59:59.953Z,11.90
2023-03-30T23:02:31.790Z,11.80
2023-03-30T23:05:05.938Z,11.80
2023-03-30T23:07:37.829Z,11.80
2023-03-30T23:10:14.669Z,11.80
2023-03-30T23:12:46.839Z,11.80
2023-03-30T23:15:18.823Z,11.90
2023-03-30T23:17:51.144Z,11.90
2023-03-30T23:20:23.172Z,12.00
2023-03-30T23:22:55.483Z,12.10
2023-03-30T23:25:27.500Z,12.00
2023-03-30T23:28:01.014Z,11.90
2023-03-30T23:30:32.922Z,12.00
2023-03-30T23:33:04.886Z,12.00
2023-03-30T23:35:37.026Z,11.90
2023-03-30T23:38:10.485Z,11.90
2023-03-30T23:40:43.011Z,11.80
2023-03-30T23:43:15.097Z,11.90
2023-03-30T23:45:46.877Z,12.00
2023-03-30T23:48:19.449Z,12.10
2023-03-30T23:50:51.426Z,12.20
2023-03-30T23:53:25.084Z,12.30
2023-03-30T23:55:58.360Z,12.20
2023-03-30T23:58:30.434Z,12.10
